createdAt,value
2018-12-12T00:00:00.649Z,23.87
2018-12-12T00:02:28.393Z,24.03
2018-12-12T00:04:56.176Z,25.40
2018-12-12T00:07:23.817Z,25.53
2018-12-12T00:09:51.505Z,22.93
2018-12-12T00:12:19.336Z,22.43
2018-12-12T00:14:47.037Z,22.90
2018-12-12T00:17:14.791Z,23.63
2018-12-12T00:19:42.563Z,23.70
2018-12-12T00:22:10.234Z,25.50
2018-12-12T00:24:37.916Z,23.47
2018-12-12T00:27:05.592Z,24.50
2018-12-12T00:29:33.307Z,27.77
2018-12-12T00:32:01.082Z,23.23
2018-12-12T00:34:28.717Z,23.10
2018-12-12T00:36:56.352Z,25.80
2018-12-12T00:39:24.047Z,24.30
2018-12-12T00:41:51.682Z,20.00
2018-12-12T00:44:19.337Z,20.60
2018-12-12T00:46:47.152Z,22.37
2018-12-12T00:49:15.089Z,24.70
2018-12-12T00:51:42.902Z,29.70
2018-12-12T00:54:10.617Z,25.90
2018-12-12T00:56:38.293Z,23.20
2018-12-12T00:59:06.147Z,20.37
2018-12-12T01:01:33.944Z,20.10
2018-12-12T01:04:01.617Z,22.43
2018-12-12T01:06:29.373Z,23.47
2018-12-12T01:08:57.011Z,20.53
2018-12-12T01:11:30.263Z,19.40
2018-12-12T01:13:57.937Z,17.83
2018-12-12T01:16:25.772Z,21.90
2018-12-12T01:18:53.548Z,21.77
2018-12-12T01:21:21.243Z,21.43
2018-12-12T01:23:48.979Z,19.27
2018-12-12T01:26:16.674Z,20.57
2018-12-12T01:28:44.448Z,20.93
2018-12-12T01:31:12.224Z,20.90
2018-12-12T01:33:39.958Z,20.23
2018-12-12T01:36:07.733Z,17.60
2018-12-12T01:38:35.389Z,17.93
2018-12-12T01:41:03.164Z,16.63
2018-12-12T01:43:30.821Z,18.03
2018-12-12T01:45:58.467Z,16.13
2018-12-12T01:48:26.249Z,17.40
2018-12-12T01:50:53.927Z,19.27
2018-12-12T01:53:21.679Z,14.90
2018-12-12T01:55:49.535Z,20.00
2018-12-12T01:58:17.197Z,17.37
2018-12-12T02:00:44.844Z,19.23
2018-12-12T02:03:12.581Z,20.17
2018-12-12T02:05:40.260Z,17.63
2018-12-12T02:08:08.031Z,20.60
2018-12-12T02:10:36.001Z,24.23
2018-12-12T02:13:16.001Z,23.03
2018-12-12T02:15:43.695Z,20.17
2018-12-12T02:18:11.470Z,24.47
2018-12-12T02:20:39.226Z,21.33
2018-12-12T02:23:06.980Z,30.30
2018-12-12T02:25:34.635Z,24.70
2018-12-12T02:28:02.351Z,25.23
2018-12-12T02:30:30.048Z,23.93
2018-12-12T02:32:57.761Z,22.53
2018-12-12T02:35:25.498Z,24.50
2018-12-12T02:40:55.404Z,24.47
2018-12-12T02:43:23.220Z,23.63
2018-12-12T02:45:50.941Z,23.90
2018-12-12T02:48:19.130Z,22.00
2018-12-12T02:50:46.826Z,24.73
2018-12-12T02:53:14.501Z,22.00
2018-12-12T02:55:42.194Z,24.17
2018-12-12T02:58:09.851Z,23.70
2018-12-12T03:00:37.485Z,26.07
2018-12-12T03:03:05.162Z,26.27
2018-12-12T03:05:32.957Z,23.93
2018-12-12T03:08:00.711Z,23.87
2018-12-12T03:10:28.365Z,24.30
2018-12-12T03:12:56.024Z,18.93
2018-12-12T03:17:50.516Z,25.00
2018-12-12T03:20:18.267Z,23.93
2018-12-12T03:22:46.063Z,22.73
2018-12-12T03:25:13.961Z,21.63
2018-12-12T03:27:41.672Z,19.70
2018-12-12T03:30:09.506Z,19.77
2018-12-12T03:32:37.304Z,19.83
2018-12-12T03:35:05.217Z,21.03
2018-12-12T03:37:32.918Z,21.27
2018-12-12T03:40:00.949Z,21.60
2018-12-12T03:42:29.162Z,20.60
2018-12-12T03:44:56.858Z,18.43
2018-12-12T03:47:24.593Z,22.23
2018-12-12T03:49:52.268Z,19.30
2018-12-12T03:52:20.003Z,17.30
2018-12-12T03:54:47.678Z,16.93
2018-12-12T03:57:15.356Z,15.63
2018-12-12T03:59:43.214Z,18.80
2018-12-12T04:02:11.103Z,18.93
2018-12-12T04:04:38.881Z,16.90
2018-12-12T04:07:06.554Z,15.60
2018-12-12T04:09:34.239Z,17.73
2018-12-12T04:12:02.049Z,15.30
2018-12-12T04:14:29.719Z,17.17
2018-12-12T04:16:57.416Z,16.23
2018-12-12T04:19:25.480Z,16.90
2018-12-12T04:21:53.322Z,17.87
2018-12-12T04:24:22.160Z,19.93
2018-12-12T04:26:49.893Z,16.67
2018-12-12T04:29:17.543Z,15.73
2018-12-12T04:31:46.157Z,18.00
2018-12-12T04:34:14.565Z,16.87
2018-12-12T04:36:43.080Z,18.43
2018-12-12T04:39:10.792Z,16.70
2018-12-12T04:41:38.523Z,16.80
2018-12-12T04:44:06.724Z,19.37
2018-12-12T04:46:34.354Z,19.33
2018-12-12T04:49:02.212Z,18.93
2018-12-12T04:51:30.523Z,19.17
2018-12-12T04:53:58.218Z,18.07
2018-12-12T04:56:25.858Z,19.37
2018-12-12T04:58:54.467Z,21.20
2018-12-12T05:01:22.143Z,18.97
2018-12-12T05:03:50.121Z,20.40
2018-12-12T05:06:18.492Z,21.30
2018-12-12T05:08:46.409Z,20.93
2018-12-12T05:11:14.142Z,21.27
2018-12-12T05:13:41.837Z,23.10
2018-12-12T05:16:09.573Z,18.40
2018-12-12T05:18:37.427Z,20.90
2018-12-12T05:21:05.111Z,21.10
2018-12-12T05:23:32.897Z,21.20
2018-12-12T05:26:00.553Z,22.57
2018-12-12T05:28:28.227Z,21.57
2018-12-12T05:30:55.903Z,19.63
2018-12-12T05:33:23.601Z,20.97
2018-12-12T05:35:51.366Z,20.70
2018-12-12T05:38:19.119Z,22.50
2018-12-12T05:40:46.777Z,21.37
2018-12-12T05:43:14.498Z,20.57
2018-12-12T05:45:42.515Z,23.07
2018-12-12T05:48:10.307Z,22.83
2018-12-12T05:50:38.243Z,23.83
2018-12-12T05:53:05.900Z,25.20
2018-12-12T05:55:33.554Z,24.97
2018-12-12T05:58:01.429Z,24.40
2018-12-12T06:00:29.144Z,24.80
2018-12-12T06:02:56.878Z,24.57
2018-12-12T06:05:24.533Z,26.17
2018-12-12T06:07:52.209Z,24.17
2018-12-12T06:10:20.025Z,28.50
2018-12-12T06:12:47.607Z,24.27
2018-12-12T06:15:15.222Z,26.40
2018-12-12T06:17:42.834Z,25.03
2018-12-12T06:20:10.484Z,22.83
2018-12-12T06:22:38.303Z,29.67
2018-12-12T06:25:05.900Z,26.30
2018-12-12T06:27:33.487Z,27.40
2018-12-12T06:30:01.103Z,29.17
2018-12-12T06:32:28.692Z,26.90
2018-12-12T06:34:56.293Z,31.57
2018-12-12T06:37:23.874Z,29.00
2018-12-12T06:39:51.486Z,31.73
2018-12-12T06:42:19.105Z,30.83
2018-12-12T06:44:46.710Z,31.17
2018-12-12T06:47:14.305Z,34.90
2018-12-12T06:49:41.913Z,32.07
2018-12-12T06:52:09.514Z,33.87
2018-12-12T06:54:37.113Z,35.93
2018-12-12T06:57:04.692Z,32.37
2018-12-12T06:59:32.303Z,32.00
2018-12-12T07:02:00.016Z,30.13
2018-12-12T07:04:27.658Z,32.93
2018-12-12T07:06:55.775Z,36.17
2018-12-12T07:09:23.373Z,33.47
2018-12-12T07:11:50.954Z,35.57
2018-12-12T07:14:18.568Z,36.23
2018-12-12T07:16:46.157Z,34.97
2018-12-12T07:19:13.768Z,37.60
2018-12-12T07:21:41.355Z,38.00
2018-12-12T07:24:08.965Z,35.83
2018-12-12T07:26:36.609Z,33.40
2018-12-12T07:29:04.236Z,31.80
2018-12-12T07:31:31.818Z,35.37
2018-12-12T07:34:01.122Z,40.17
2018-12-12T07:36:29.068Z,35.93
2018-12-12T07:38:56.686Z,34.87
2018-12-12T07:41:24.758Z,36.67
2018-12-12T07:43:52.483Z,36.97
2018-12-12T07:46:21.087Z,34.97
2018-12-12T07:48:48.683Z,32.50
2018-12-12T07:51:16.282Z,34.90
2018-12-12T07:53:43.888Z,33.70
2018-12-12T07:56:11.504Z,34.40
2018-12-12T07:58:39.094Z,34.17
2018-12-12T08:01:06.813Z,30.57
2018-12-12T08:03:34.408Z,30.83
2018-12-12T08:06:02.051Z,32.40
2018-12-12T08:08:29.643Z,28.80
2018-12-12T08:10:57.253Z,27.70
2018-12-12T08:13:24.861Z,20.47
2018-12-12T08:15:52.532Z,16.43
2018-12-12T08:18:20.118Z,15.00
2018-12-12T08:20:47.722Z,14.93
2018-12-12T08:23:15.645Z,14.17
2018-12-12T08:25:43.481Z,13.50
2018-12-12T08:28:11.131Z,16.00
2018-12-12T08:30:38.729Z,17.10
2018-12-12T08:33:11.085Z,19.40
2018-12-12T08:35:35.983Z,18.60
2018-12-12T08:38:03.564Z,19.50
2018-12-12T08:40:31.171Z,18.73
2018-12-12T08:42:58.776Z,20.77
2018-12-12T08:45:26.373Z,19.10
2018-12-12T08:47:53.963Z,20.23
2018-12-12T08:50:21.568Z,20.00
2018-12-12T08:52:49.158Z,17.90
2018-12-12T08:55:17.747Z,18.57
2018-12-12T08:57:45.673Z,18.30
2018-12-12T09:00:13.278Z,20.83
2018-12-12T09:02:40.873Z,19.10
2018-12-12T09:05:08.478Z,19.50
2018-12-12T09:07:36.075Z,17.90
2018-12-12T09:10:05.075Z,16.33
2018-12-12T09:12:32.720Z,17.00
2018-12-12T09:15:00.326Z,18.53
2018-12-12T09:17:27.912Z,17.50
2018-12-12T09:19:55.557Z,18.43
2018-12-12T09:22:23.187Z,21.27
2018-12-12T09:24:50.800Z,19.50
2018-12-12T09:27:18.387Z,20.07
2018-12-12T09:29:46.025Z,18.27
2018-12-12T09:32:13.621Z,17.73
2018-12-12T09:34:41.206Z,17.23
2018-12-12T09:37:08.824Z,21.23
2018-12-12T09:39:36.444Z,18.63
2018-12-12T09:42:04.057Z,19.37
2018-12-12T09:44:31.659Z,19.40
2018-12-12T09:46:59.264Z,17.67
2018-12-12T09:49:26.845Z,19.20
2018-12-12T09:51:54.521Z,19.80
2018-12-12T09:54:22.160Z,22.03
2018-12-12T09:56:49.774Z,18.50
2018-12-12T09:59:17.364Z,20.20
2018-12-12T10:01:45.061Z,19.67
2018-12-12T10:04:12.689Z,21.77
2018-12-12T10:06:40.295Z,19.93
2018-12-12T10:09:08.048Z,18.70
2018-12-12T10:11:35.668Z,20.20
2018-12-12T10:14:03.376Z,19.87
2018-12-12T10:16:31.017Z,18.67
2018-12-12T10:18:58.976Z,19.13
2018-12-12T10:21:26.944Z,18.50
2018-12-12T10:23:54.549Z,18.17
2018-12-12T10:26:22.204Z,17.87
2018-12-12T10:28:49.869Z,18.93
2018-12-12T10:31:17.742Z,16.80
2018-12-12T10:33:45.328Z,16.77
2018-12-12T10:36:12.936Z,17.60
2018-12-12T10:38:40.539Z,17.60
2018-12-12T10:41:08.155Z,17.63
2018-12-12T10:43:35.737Z,17.00
2018-12-12T10:46:03.347Z,17.47
2018-12-12T10:48:30.956Z,17.00
2018-12-12T10:50:58.562Z,11.63
2018-12-12T10:53:26.146Z,10.87
2018-12-12T10:55:53.782Z,5.77
2018-12-12T10:58:21.359Z,4.70
2018-12-12T11:00:54.631Z,3.40
2018-12-12T11:03:27.890Z,2.50
2018-12-12T11:05:55.492Z,2.57
2018-12-12T11:08:23.082Z,2.37
2018-12-12T11:10:50.701Z,2.50
2018-12-12T11:13:18.282Z,2.40
2018-12-12T11:15:45.853Z,3.27
2018-12-12T11:18:13.442Z,3.07
2018-12-12T11:20:41.023Z,2.90
2018-12-12T11:23:08.653Z,2.43
2018-12-12T11:25:36.253Z,3.60
2018-12-12T11:28:03.887Z,3.93
2018-12-12T11:30:31.469Z,3.90
2018-12-12T11:32:59.077Z,3.63
2018-12-12T11:35:26.679Z,4.03
2018-12-12T11:37:54.279Z,2.10
2018-12-12T11:40:21.846Z,1.50
2018-12-12T11:42:49.497Z,1.93
2018-12-12T11:45:17.069Z,2.40
2018-12-12T11:47:44.912Z,2.43
2018-12-12T11:50:12.483Z,2.57
2018-12-12T11:52:40.083Z,2.80
2018-12-12T11:55:07.665Z,2.60
2018-12-12T11:57:35.510Z,3.37
2018-12-12T12:00:04.033Z,4.40
2018-12-12T12:02:35.639Z,3.97
2018-12-12T12:05:01.256Z,3.17
2018-12-12T12:07:28.859Z,3.17
2018-12-12T12:09:56.439Z,2.97
2018-12-12T12:12:24.061Z,3.30
2018-12-12T12:14:51.770Z,3.47
2018-12-12T12:17:19.528Z,3.33
2018-12-12T12:19:47.100Z,4.40
2018-12-12T12:22:14.703Z,4.90
2018-12-12T12:24:42.276Z,4.80
2018-12-12T12:27:09.882Z,3.37
2018-12-12T12:29:37.470Z,3.50
2018-12-12T12:32:05.085Z,4.63
2018-12-12T12:34:32.652Z,3.93
2018-12-12T12:37:00.267Z,4.50
2018-12-12T12:39:27.837Z,4.90
2018-12-12T12:41:55.436Z,4.93
2018-12-12T12:44:23.018Z,4.50
2018-12-12T12:46:50.698Z,4.50
2018-12-12T12:49:18.375Z,6.07
2018-12-12T12:51:45.962Z,4.50
2018-12-12T12:54:13.574Z,5.70
2018-12-12T12:56:41.151Z,5.80
2018-12-12T12:59:08.771Z,5.63
2018-12-12T13:01:36.357Z,6.50
2018-12-12T13:04:09.491Z,7.33
2018-12-12T13:06:33.581Z,7.20
2018-12-12T13:09:01.186Z,7.27
2018-12-12T13:11:28.868Z,7.80
2018-12-12T13:13:56.511Z,7.80
2018-12-12T13:16:24.111Z,8.70
2018-12-12T13:18:51.727Z,9.10
2018-12-12T13:21:19.305Z,7.93
2018-12-12T13:23:46.908Z,10.13
2018-12-12T13:26:14.488Z,10.13
2018-12-12T13:28:42.179Z,10.07
2018-12-12T13:31:09.779Z,12.53
2018-12-12T13:33:37.380Z,10.43
2018-12-12T13:36:04.972Z,9.07
2018-12-12T13:38:32.626Z,9.47
2018-12-12T13:41:00.210Z,10.20
2018-12-12T13:43:27.819Z,8.70
2018-12-12T13:45:55.422Z,10.00
2018-12-12T13:48:23.133Z,9.57
2018-12-12T13:50:50.824Z,9.90
2018-12-12T13:53:18.448Z,9.77
2018-12-12T13:55:46.039Z,9.17
2018-12-12T13:58:13.639Z,8.93
2018-12-12T14:00:41.238Z,9.00
2018-12-12T14:03:08.850Z,9.60
2018-12-12T14:05:36.440Z,10.13
2018-12-12T14:08:04.069Z,9.40
2018-12-12T14:10:31.659Z,10.47
2018-12-12T14:12:59.260Z,9.80
2018-12-12T14:15:26.846Z,10.13
2018-12-12T14:17:54.504Z,9.80
2018-12-12T14:20:22.173Z,9.00
2018-12-12T14:22:49.859Z,9.70
2018-12-12T14:25:17.456Z,9.77
2018-12-12T14:27:45.052Z,11.10
2018-12-12T14:30:12.903Z,10.13
2018-12-12T14:32:40.480Z,10.60
2018-12-12T14:35:08.089Z,11.20
2018-12-12T14:37:35.671Z,13.20
2018-12-12T14:40:03.541Z,13.40
2018-12-12T14:42:31.129Z,13.50
2018-12-12T14:44:58.738Z,15.63
2018-12-12T14:47:26.360Z,15.63
2018-12-12T14:49:53.982Z,13.30
2018-12-12T14:52:21.601Z,14.87
2018-12-12T14:54:49.208Z,16.77
2018-12-12T14:57:16.794Z,17.43
2018-12-12T14:59:44.407Z,16.00
2018-12-12T15:02:11.992Z,16.60
2018-12-12T15:04:39.602Z,21.53
2018-12-12T15:07:07.183Z,22.27
2018-12-12T15:09:34.787Z,17.70
2018-12-12T15:12:02.401Z,21.00
2018-12-12T15:14:30.045Z,15.30
2018-12-12T15:16:57.644Z,18.77
2018-12-12T15:19:25.255Z,17.07
2018-12-12T15:21:52.860Z,27.70
2018-12-12T15:24:20.465Z,25.10
2018-12-12T15:26:48.065Z,16.53
2018-12-12T15:29:15.701Z,13.50
2018-12-12T15:31:43.350Z,10.83
2018-12-12T15:34:10.954Z,11.00
2018-12-12T15:36:38.544Z,11.97
2018-12-12T15:39:07.306Z,11.20
2018-12-12T15:41:35.096Z,12.53
2018-12-12T15:44:02.850Z,11.60
2018-12-12T15:46:30.466Z,15.53
2018-12-12T15:48:58.071Z,16.20
2018-12-12T15:51:25.665Z,11.70
2018-12-12T15:53:53.278Z,16.90
2018-12-12T15:56:20.860Z,16.80
2018-12-12T15:58:48.469Z,15.67
2018-12-12T16:01:16.059Z,18.80
2018-12-12T16:03:43.657Z,22.37
2018-12-12T16:06:11.259Z,19.23
2018-12-12T16:08:38.867Z,15.20
2018-12-12T16:11:08.394Z,18.00
2018-12-12T16:13:36.142Z,17.20
2018-12-12T16:16:03.761Z,17.53
2018-12-12T16:18:31.371Z,17.77
2018-12-12T16:21:00.257Z,17.73
2018-12-12T16:23:27.989Z,11.67
2018-12-12T16:25:55.682Z,11.80
2018-12-12T16:28:23.355Z,12.20
2018-12-12T16:30:51.034Z,11.00
2018-12-12T16:33:18.648Z,10.30
2018-12-12T16:35:46.292Z,11.00
2018-12-12T16:38:13.939Z,15.30
2018-12-12T16:40:41.620Z,15.70
2018-12-12T16:43:09.290Z,14.27
2018-12-12T16:45:36.936Z,16.93
2018-12-12T16:48:04.554Z,16.40
2018-12-12T16:50:32.227Z,16.73
2018-12-12T16:52:59.910Z,17.13
2018-12-12T16:55:27.620Z,13.60
2018-12-12T16:57:55.260Z,10.10
2018-12-12T17:00:22.915Z,13.10
2018-12-12T17:02:50.531Z,13.33
2018-12-12T17:05:18.174Z,12.80
2018-12-12T17:07:45.823Z,15.63
2018-12-12T17:10:13.555Z,15.20
2018-12-12T17:12:41.290Z,17.03
2018-12-12T17:15:09.347Z,15.13
2018-12-12T17:17:36.962Z,14.40
2018-12-12T17:20:05.980Z,19.73
2018-12-12T17:22:33.620Z,14.33
2018-12-12T17:25:01.267Z,12.43
2018-12-12T17:27:28.922Z,12.87
2018-12-12T17:29:56.595Z,12.00
2018-12-12T17:32:24.213Z,12.30
2018-12-12T17:34:51.878Z,12.70
2018-12-12T17:37:19.516Z,11.50
2018-12-12T17:39:47.158Z,14.03
2018-12-12T17:42:14.790Z,12.37
2018-12-12T17:44:42.431Z,11.70
2018-12-12T17:47:10.145Z,11.17
2018-12-12T17:49:37.789Z,11.30
2018-12-12T17:52:05.415Z,13.83
2018-12-12T17:54:33.081Z,11.80
2018-12-12T17:57:00.943Z,11.40
2018-12-12T17:59:28.611Z,12.27
2018-12-12T18:01:56.272Z,11.70
2018-12-12T18:04:23.931Z,10.97
2018-12-12T18:06:51.582Z,11.20
2018-12-12T18:09:19.190Z,10.67
2018-12-12T18:11:46.825Z,11.00
2018-12-12T18:14:14.467Z,10.80
2018-12-12T18:16:42.114Z,12.93
2018-12-12T18:19:09.723Z,11.07
2018-12-12T18:21:37.383Z,11.70
2018-12-12T18:24:05.018Z,11.07
2018-12-12T18:26:32.700Z,10.73
2018-12-12T18:29:00.311Z,10.90
2018-12-12T18:31:27.980Z,10.93
2018-12-12T18:33:55.655Z,11.47
2018-12-12T18:36:23.351Z,8.73
2018-12-12T18:38:50.977Z,10.77
2018-12-12T18:41:18.598Z,10.73
2018-12-12T18:43:46.267Z,10.07
2018-12-12T18:46:15.379Z,9.87
2018-12-12T18:48:43.225Z,10.00
2018-12-12T18:51:10.867Z,10.00
2018-12-12T18:53:38.515Z,10.40
2018-12-12T18:56:06.192Z,9.90
2018-12-12T18:58:33.847Z,9.87
2018-12-12T19:01:01.522Z,9.90
2018-12-12T19:03:29.157Z,9.90
2018-12-12T19:05:56.833Z,9.97
2018-12-12T19:08:24.468Z,9.40
2018-12-12T19:10:52.111Z,10.93
2018-12-12T19:13:19.739Z,9.97
2018-12-12T19:15:47.373Z,9.37
2018-12-12T19:18:15.061Z,9.67
2018-12-12T19:20:42.532Z,8.53
2018-12-12T19:23:10.159Z,9.63
2018-12-12T19:25:37.911Z,8.80
2018-12-12T19:28:05.526Z,9.03
2018-12-12T19:30:33.147Z,8.13
2018-12-12T19:33:00.782Z,8.10
2018-12-12T19:35:34.679Z,6.77
2018-12-12T19:37:58.130Z,8.40
2018-12-12T19:40:25.786Z,8.13
2018-12-12T19:42:53.421Z,8.60
2018-12-12T19:45:21.072Z,8.13
2018-12-12T19:47:48.741Z,9.40
2018-12-12T19:50:16.346Z,9.80
2018-12-12T19:52:44.032Z,8.83
2018-12-12T19:55:11.650Z,8.70
2018-12-12T19:57:39.297Z,8.37
2018-12-12T20:00:07.321Z,8.97
2018-12-12T20:02:34.982Z,8.47
2018-12-12T20:05:02.619Z,8.50
2018-12-12T20:07:30.280Z,8.50
2018-12-12T20:09:57.919Z,8.97
2018-12-12T20:12:25.582Z,9.00
2018-12-12T20:14:53.257Z,9.60
2018-12-12T20:17:20.963Z,8.73
2018-12-12T20:19:48.599Z,9.17
2018-12-12T20:22:16.222Z,7.93
2018-12-12T20:24:43.839Z,9.43
2018-12-12T20:27:11.576Z,8.40
2018-12-12T20:29:39.217Z,8.40
2018-12-12T20:32:06.856Z,8.60
2018-12-12T20:34:34.504Z,9.80
2018-12-12T20:37:02.155Z,8.50
2018-12-12T20:39:29.779Z,9.27
2018-12-12T20:41:57.425Z,8.17
2018-12-12T20:44:25.053Z,7.93
2018-12-12T20:46:52.769Z,8.60
2018-12-12T20:49:20.377Z,9.20
2018-12-12T20:51:48.011Z,9.10
2018-12-12T20:54:15.643Z,9.00
2018-12-12T20:56:43.293Z,9.23
2018-12-12T20:59:10.970Z,8.67
2018-12-12T21:01:38.615Z,8.93
2018-12-12T21:04:06.245Z,8.93
2018-12-12T21:06:33.937Z,9.07
2018-12-12T21:09:01.553Z,9.03
2018-12-12T21:11:29.205Z,9.13
2018-12-12T21:13:56.953Z,9.37
2018-12-12T21:16:24.635Z,9.80
2018-12-12T21:18:52.292Z,8.97
2018-12-12T21:21:19.941Z,8.30
2018-12-12T21:23:47.581Z,8.00
2018-12-12T21:26:15.665Z,8.00
2018-12-12T21:28:43.291Z,7.57
2018-12-12T21:31:10.908Z,7.60
2018-12-12T21:33:38.562Z,8.60
2018-12-12T21:36:06.188Z,6.67
2018-12-12T21:38:33.830Z,7.30
2018-12-12T21:41:01.427Z,7.50
2018-12-12T21:43:29.081Z,7.30
2018-12-12T21:45:56.696Z,7.20
2018-12-12T21:48:24.351Z,6.33
2018-12-12T21:50:52.030Z,6.80
2018-12-12T21:53:19.641Z,7.33
2018-12-12T21:55:47.316Z,6.70
2018-12-12T21:58:14.972Z,7.73
2018-12-12T22:00:42.579Z,7.73
2018-12-12T22:03:10.295Z,9.90
2018-12-12T22:05:37.917Z,13.33
2018-12-12T22:08:05.615Z,10.83
2018-12-12T22:10:33.803Z,12.40
2018-12-12T22:13:01.449Z,12.57
2018-12-12T22:15:29.097Z,12.57
2018-12-12T22:17:56.716Z,10.87
2018-12-12T22:20:24.367Z,11.10
2018-12-12T22:22:52.000Z,10.97
2018-12-12T22:25:19.601Z,10.30
2018-12-12T22:27:47.255Z,11.17
2018-12-12T22:30:14.939Z,11.23
2018-12-12T22:32:42.584Z,11.20
2018-12-12T22:35:10.198Z,10.30
2018-12-12T22:37:37.828Z,10.97
2018-12-12T22:40:05.484Z,9.90
2018-12-12T22:42:33.163Z,11.37
2018-12-12T22:45:00.833Z,12.17
2018-12-12T22:47:28.493Z,12.97
2018-12-12T22:49:56.129Z,12.37
2018-12-12T22:52:23.844Z,11.63
2018-12-12T22:54:51.518Z,11.40
2018-12-12T22:57:19.206Z,11.70
2018-12-12T22:59:46.869Z,12.53
2018-12-12T23:02:14.564Z,12.10
2018-12-12T23:04:42.240Z,13.20
2018-12-12T23:07:09.947Z,13.60
2018-12-12T23:09:37.616Z,12.10
2018-12-12T23:12:05.400Z,12.80
2018-12-12T23:14:33.037Z,11.60
2018-12-12T23:17:00.655Z,12.80
2018-12-12T23:19:28.342Z,13.60
2018-12-12T23:21:56.004Z,21.30
2018-12-12T23:24:25.193Z,19.40
2018-12-12T23:26:52.968Z,20.00
2018-12-12T23:29:20.607Z,20.30
2018-12-12T23:31:48.240Z,19.70
2018-12-12T23:34:15.904Z,20.00
2018-12-12T23:36:43.517Z,20.10
2018-12-12T23:39:11.334Z,18.90
2018-12-12T23:41:38.983Z,15.63
2018-12-12T23:44:06.660Z,18.53
2018-12-12T23:46:34.449Z,18.63
2018-12-12T23:49:02.110Z,18.17
2018-12-12T23:51:29.748Z,19.67
2018-12-12T23:53:57.421Z,17.20
2018-12-12T23:56:25.096Z,17.30
2018-12-12T23:58:52.790Z,18.23
